KJAX/JAX METAR and TAF weather

Enter ICAO airport designator
Station Type Date Time Source
KJAX METAR 2019/12/13 16:56 UTC NOAA

KJAX 131656Z 00000KT 10SM BKN006 OVC200 19/17 A2994 RMK AO2 RAB1558E32 SLP140 P0000 T01890172


Station Type Date Time Source
KJAX Decoded METAR 2019/12/13 16:56 UTC NOAA

JACKSONVILLE INTERNATIONAL, FL, United States (KJAX) 30-30N 81-42W 7M
Dec 13, 2019 - 11:56 AM EST / 2019.12.13 1656 UTC
Wind: Calm:0
Visibility: 10 mile(s):0
Sky conditions: overcast
Precipitation last hour: A trace
Temperature: 66.0 F (18.9 C)
Dew Point: 63.0 F (17.2 C)
Relative Humidity: 89%
Pressure (altimeter): 29.94 in. Hg (1013 hPa)
ob: KJAX 131656Z 00000KT 10SM BKN006 OVC200 19/17 A2994 RMK AO2 RAB1558E32 SLP140 P0000 T01890172
cycle: 17

Station Type Date Time Source
KJAX TAF 2019/12/13 16:59 UTC NOAA

TAF
AMD KJAX 131559Z 1316/1412 VRB06KT 6SM -SHRA BR BKN003 OVC010
FM131900 VRB06KT 2SM SHRA VCTS SCT003 OVC007CB
FM132100 VRB05KT 4SM BR VCSH BKN003 OVC007
FM140300 19006KT 3SM BR BKN005 OVC010
FM140800 22012KT 1SM TSRA OVC003CB

Example: see airport list